sensor_id;sensor_type;location;lat;lon;timestamp;pressure;altitude;pressure_sealevel;temperature;humidity
44001;BME280;29660;42.892;24.710;2022-10-20T00:03:11;97373.19;;;10.63;100.00
44001;BME280;29660;42.892;24.710;2022-10-20T00:08:13;96950.63;;;8.31;100.00
44001;BME280;29660;42.892;24.710;2022-10-20T00:13:15;97158.47;;;10.02;100.00
44001;BME280;29660;42.892;24.710;2022-10-20T00:18:17;97385.06;;;11.68;100.00
44001;BME280;29660;42.892;24.710;2022-10-20T00:23:20;97425.59;;;12.04;97.06
44001;BME280;29660;42.892;24.710;2022-10-20T00:28:22;97154.53;;;10.57;98.93
44001;BME280;29660;42.892;24.710;2022-10-20T00:33:24;97382.03;;;12.03;95.59
44001;BME280;29660;42.892;24.710;2022-10-20T00:38:26;97146.00;;;10.55;96.54
44001;BME280;29660;42.892;24.710;2022-10-20T00:48:51;97255.78;;;11.45;96.28
44001;BME280;29660;42.892;24.710;2022-10-20T00:54:06;97407.66;;;12.47;96.39
44001;BME280;29660;42.892;24.710;2022-10-20T00:59:10;97350.59;;;12.14;95.92
44001;BME280;29660;42.892;24.710;2022-10-20T01:04:14;97391.69;;;12.42;96.21
44001;BME280;29660;42.892;24.710;2022-10-20T01:09:16;97268.28;;;11.92;95.23
44001;BME280;29660;42.892;24.710;2022-10-20T01:30:17;97368.25;;;12.53;95.56
44001;BME280;29660;42.892;24.710;2022-10-20T01:35:32;97389.41;;;12.49;95.57
44001;BME280;29660;42.892;24.710;2022-10-20T01:45:50;97324.16;;;12.13;95.34
44001;BME280;29660;42.892;24.710;2022-10-20T01:50:53;97420.50;;;12.45;96.21
44001;BME280;29660;42.892;24.710;2022-10-20T01:55:57;97150.47;;;10.89;95.48
44001;BME280;29660;42.892;24.710;2022-10-20T02:01:14;97157.69;;;10.89;95.69
44001;BME280;29660;42.892;24.710;2022-10-20T02:17:15;96951.50;;;9.44;95.43
44001;BME280;29660;42.892;24.710;2022-10-20T02:22:19;97159.19;;;10.71;96.45
44001;BME280;29660;42.892;24.710;2022-10-20T02:27:34;97133.31;;;10.47;96.62
44001;BME280;29660;42.892;24.710;2022-10-20T02:32:39;97422.44;;;12.21;98.49
44001;BME280;29660;42.892;24.710;2022-10-20T02:37:42;97418.28;;;12.10;97.20
44001;BME280;29660;42.892;24.710;2022-10-20T02:42:44;96972.72;;;9.20;96.93
44001;BME280;29660;42.892;24.710;2022-10-20T02:47:47;97169.84;;;10.47;97.50
44001;BME280;29660;42.892;24.710;2022-10-20T02:52:49;97414.56;;;12.11;96.36
44001;BME280;29660;42.892;24.710;2022-10-20T02:57:51;96946.72;;;9.12;95.21
44001;BME280;29660;42.892;24.710;2022-10-20T03:02:54;97115.69;;;10.17;94.17
44001;BME280;29660;42.892;24.710;2022-10-20T03:07:56;97183.91;;;10.52;94.14
44001;BME280;29660;42.892;24.710;2022-10-20T03:12:58;97364.72;;;11.72;93.02
44001;BME280;29660;42.892;24.710;2022-10-20T03:18:00;97383.72;;;11.94;92.19
44001;BME280;29660;42.892;24.710;2022-10-20T03:23:02;97436.81;;;12.25;91.92
44001;BME280;29660;42.892;24.710;2022-10-20T03:28:04;97433.06;;;12.26;91.51
44001;BME280;29660;42.892;24.710;2022-10-20T03:33:06;97169.97;;;10.61;90.06
44001;BME280;29660;42.892;24.710;2022-10-20T03:38:08;97434.91;;;12.31;89.74
44001;BME280;29660;42.892;24.710;2022-10-20T03:43:10;97161.69;;;10.62;89.22
44001;BME280;29660;42.892;24.710;2022-10-20T03:48:12;97229.09;;;10.97;89.01
44001;BME280;29660;42.892;24.710;2022-10-20T03:53:14;97461.91;;;12.29;88.61
44001;BME280;29660;42.892;24.710;2022-10-20T03:58:16;97198.13;;;10.72;88.23
44001;BME280;29660;42.892;24.710;2022-10-20T04:03:18;97414.09;;;12.03;88.23
44001;BME280;29660;42.892;24.710;2022-10-20T04:08:20;96955.56;;;9.02;87.88
44001;BME280;29660;42.892;24.710;2022-10-20T04:13:22;96988.75;;;9.10;87.56
44001;BME280;29660;42.892;24.710;2022-10-20T04:18:24;97225.47;;;10.59;87.75
44001;BME280;29660;42.892;24.710;2022-10-20T04:23:26;97266.13;;;10.74;87.45
44001;BME280;29660;42.892;24.710;2022-10-20T04:28:28;97468.91;;;12.01;87.55
44001;BME280;29660;42.892;24.710;2022-10-20T04:33:30;97213.75;;;10.20;87.34
44001;BME280;29660;42.892;24.710;2022-10-20T04:38:33;97295.34;;;10.90;86.72
44001;BME280;29660;42.892;24.710;2022-10-20T04:43:35;97425.66;;;11.70;86.77
44001;BME280;29660;42.892;24.710;2022-10-20T04:48:41;97315.91;;;10.89;86.55
44001;BME280;29660;42.892;24.710;2022-10-20T04:53:44;97339.84;;;10.94;86.61
44001;BME280;29660;42.892;24.710;2022-10-20T04:58:47;97453.88;;;11.52;88.13
44001;BME280;29660;42.892;24.710;2022-10-20T05:03:50;97257.28;;;10.11;89.18
44001;BME280;29660;42.892;24.710;2022-10-20T05:08:58;97253.03;;;10.04;89.33
44001;BME280;29660;42.892;24.710;2022-10-20T05:14:01;97524.03;;;11.63;90.16
44001;BME280;29660;42.892;24.710;2022-10-20T05:19:03;97307.88;;;10.16;89.60
44001;BME280;29660;42.892;24.710;2022-10-20T05:24:05;97286.69;;;9.90;90.52
44001;BME280;29660;42.892;24.710;2022-10-20T05:29:08;97538.88;;;11.45;91.45
44001;BME280;29660;42.892;24.710;2022-10-20T05:34:11;97301.34;;;9.93;90.39
44001;BME280;29660;42.892;24.710;2022-10-20T05:39:13;97563.28;;;11.67;89.56
44001;BME280;29660;42.892;24.710;2022-10-20T05:44:15;97308.72;;;10.06;88.34
44001;BME280;29660;42.892;24.710;2022-10-20T05:49:17;97557.66;;;11.69;87.63
44001;BME280;29660;42.892;24.710;2022-10-20T05:54:19;97321.13;;;10.31;85.91
44001;BME280;29660;42.892;24.710;2022-10-20T05:59:21;97532.25;;;11.71;85.05
44001;BME280;29660;42.892;24.710;2022-10-20T06:04:23;97316.78;;;10.45;84.22
44001;BME280;29660;42.892;24.710;2022-10-20T06:09:26;97459.03;;;11.43;82.99
44001;BME280;29660;42.892;24.710;2022-10-20T06:14:28;97586.38;;;12.45;82.29
44001;BME280;29660;42.892;24.710;2022-10-20T06:19:30;97375.47;;;11.14;80.97
44001;BME280;29660;42.892;24.710;2022-10-20T06:24:33;97606.88;;;12.79;80.57
44001;BME280;29660;42.892;24.710;2022-10-20T06:29:35;97599.56;;;12.85;79.99
44001;BME280;29660;42.892;24.710;2022-10-20T06:34:37;97338.41;;;11.36;78.06
44001;BME280;29660;42.892;24.710;2022-10-20T06:39:39;97507.09;;;12.55;76.21
44001;BME280;29660;42.892;24.710;2022-10-20T06:44:41;97554.09;;;13.03;74.83
44001;BME280;29660;42.892;24.710;2022-10-20T06:49:43;97525.94;;;13.06;73.81
44001;BME280;29660;42.892;24.710;2022-10-20T06:54:45;97632.78;;;14.02;73.84
44001;BME280;29660;42.892;24.710;2022-10-20T06:59:47;97416.03;;;12.78;71.71
44001;BME280;29660;42.892;24.710;2022-10-20T07:04:49;97413.41;;;13.11;70.09
44001;BME280;29660;42.892;24.710;2022-10-20T07:09:51;97644.69;;;14.89;69.20
44001;BME280;29660;42.892;24.710;2022-10-20T07:14:53;97402.63;;;13.49;67.15
44001;BME280;29660;42.892;24.710;2022-10-20T07:19:55;97456.75;;;13.65;67.01
44001;BME280;29660;42.892;24.710;2022-10-20T07:24:57;97411.91;;;13.05;67.92
44001;BME280;29660;42.892;24.710;2022-10-20T07:30:00;97427.91;;;13.43;66.93
44001;BME280;29660;42.892;24.710;2022-10-20T07:35:02;97525.31;;;14.26;65.98
44001;BME280;29660;42.892;24.710;2022-10-20T07:40:04;97636.41;;;15.13;65.47
44001;BME280;29660;42.892;24.710;2022-10-20T07:45:07;97402.03;;;13.66;66.12
44001;BME280;29660;42.892;24.710;2022-10-20T07:50:09;97429.06;;;13.97;65.81
44001;BME280;29660;42.892;24.710;2022-10-20T07:55:11;97401.16;;;13.98;64.26
44001;BME280;29660;42.892;24.710;2022-10-20T08:00:33;97603.09;;;15.14;63.51
44001;BME280;29660;42.892;24.710;2022-10-20T08:05:35;97384.19;;;13.89;63.46
44001;BME280;29660;42.892;24.710;2022-10-20T08:10:37;97390.22;;;13.94;62.69
44001;BME280;29660;42.892;24.710;2022-10-20T08:15:39;97637.44;;;15.53;63.35
44001;BME280;29660;42.892;24.710;2022-10-20T08:21:05;97530.09;;;14.84;63.12
44001;BME280;29660;42.892;24.710;2022-10-20T08:26:07;97427.44;;;14.37;62.95
44001;BME280;29660;42.892;24.710;2022-10-20T08:31:11;97431.22;;;14.50;60.73
44001;BME280;29660;42.892;24.710;2022-10-20T08:36:13;97644.78;;;15.98;59.84
44001;BME280;29660;42.892;24.710;2022-10-20T08:41:32;97385.88;;;14.48;59.07
44001;BME280;29660;42.892;24.710;2022-10-20T08:46:55;97653.47;;;15.94;59.34
44001;BME280;29660;42.892;24.710;2022-10-20T08:51:58;97482.09;;;14.83;59.98
44001;BME280;29660;42.892;24.710;2022-10-20T08:57:00;97565.41;;;15.64;58.07
44001;BME280;29660;42.892;24.710;2022-10-20T09:02:13;97428.78;;;14.76;58.70
44001;BME280;29660;42.892;24.710;2022-10-20T09:12:21;97608.03;;;15.70;59.42
44001;BME280;29660;42.892;24.710;2022-10-20T09:17:26;97400.94;;;14.36;59.90
44001;BME280;29660;42.892;24.710;2022-10-20T09:22:29;97616.16;;;15.43;59.43
44001;BME280;29660;42.892;24.710;2022-10-20T09:27:36;97408.22;;;14.08;59.32
44001;BME280;29660;42.892;24.710;2022-10-20T09:32:42;97602.38;;;15.22;60.29
44001;BME280;29660;42.892;24.710;2022-10-20T09:43:07;97618.72;;;16.07;58.90
44001;BME280;29660;42.892;24.710;2022-10-20T09:48:31;97660.66;;;16.30;57.20
44001;BME280;29660;42.892;24.710;2022-10-20T09:54:14;97665.34;;;16.16;57.80
44001;BME280;29660;42.892;24.710;2022-10-20T09:59:24;97661.78;;;16.07;57.62
44001;BME280;29660;42.892;24.710;2022-10-20T10:04:39;97662.69;;;16.02;58.98
44001;BME280;29660;42.892;24.710;2022-10-20T10:10:21;97445.75;;;14.85;58.06
44001;BME280;29660;42.892;24.710;2022-10-20T10:15:38;97645.84;;;16.41;58.72
44001;BME280;29660;42.892;24.710;2022-10-20T10:20:41;97640.13;;;16.65;57.13
44001;BME280;29660;42.892;24.710;2022-10-20T10:25:43;97654.28;;;16.49;56.30
44001;BME280;29660;42.892;24.710;2022-10-20T10:30:45;97478.47;;;15.46;57.14
44001;BME280;29660;42.892;24.710;2022-10-20T10:35:49;97393.78;;;15.04;57.59
44001;BME280;29660;42.892;24.710;2022-10-20T10:45:56;97631.94;;;17.19;53.15
44001;BME280;29660;42.892;24.710;2022-10-20T10:51:10;97194.34;;;14.58;53.45
44001;BME280;29660;42.892;24.710;2022-10-20T11:01:50;97617.09;;;17.65;51.17
44001;BME280;29660;42.892;24.710;2022-10-20T11:17:49;97570.13;;;17.92;51.96
44001;BME280;29660;42.892;24.710;2022-10-20T11:28:47;97610.56;;;17.66;51.17
44001;BME280;29660;42.892;24.710;2022-10-20T11:33:56;97357.63;;;16.12;49.80
44001;BME280;29660;42.892;24.710;2022-10-20T11:39:00;97516.19;;;17.31;50.34
44001;BME280;29660;42.892;24.710;2022-10-20T11:44:14;97463.53;;;17.08;49.35
44001;BME280;29660;42.892;24.710;2022-10-20T11:49:18;97583.09;;;18.16;48.91
44001;BME280;29660;42.892;24.710;2022-10-20T11:54:39;97567.88;;;17.94;48.77
44001;BME280;29660;42.892;24.710;2022-10-20T12:16:11;97554.41;;;17.51;48.60
44001;BME280;29660;42.892;24.710;2022-10-20T12:27:15;97335.94;;;16.34;48.60
44001;BME280;29660;42.892;24.710;2022-10-20T12:33:07;97598.19;;;18.08;48.40
44001;BME280;29660;42.892;24.710;2022-10-20T12:38:00;97351.97;;;16.57;45.37
44001;BME280;29660;42.892;24.710;2022-10-20T12:43:04;97380.19;;;17.03;46.16
44001;BME280;29660;42.892;24.710;2022-10-20T12:48:08;97598.41;;;18.42;45.07
44001;BME280;29660;42.892;24.710;2022-10-20T12:53:25;97371.28;;;17.11;44.45
44001;BME280;29660;42.892;24.710;2022-10-20T12:58:31;97543.19;;;18.22;45.34
44001;BME280;29660;42.892;24.710;2022-10-20T13:03:41;97595.31;;;18.60;44.70
44001;BME280;29660;42.892;24.710;2022-10-20T13:19:17;97334.84;;;16.35;45.66
44001;BME280;29660;42.892;24.710;2022-10-20T13:24:28;97388.59;;;16.75;46.05
44001;BME280;29660;42.892;24.710;2022-10-20T13:29:40;97319.78;;;16.00;46.71
44001;BME280;29660;42.892;24.710;2022-10-20T13:34:51;97415.91;;;16.42;47.42
44001;BME280;29660;42.892;24.710;2022-10-20T13:50:25;97598.34;;;17.42;45.59
44001;BME280;29660;42.892;24.710;2022-10-20T13:55:30;97370.25;;;16.03;45.14
44001;BME280;29660;42.892;24.710;2022-10-20T14:01:03;97607.56;;;17.50;45.75
44001;BME280;29660;42.892;24.710;2022-10-20T14:11:29;97515.03;;;16.89;46.35
44001;BME280;29660;42.892;24.710;2022-10-20T14:16:32;97381.31;;;15.92;46.23
44001;BME280;29660;42.892;24.710;2022-10-20T14:21:39;97574.66;;;17.05;46.69
44001;BME280;29660;42.892;24.710;2022-10-20T14:26:42;97511.16;;;16.55;46.69
44001;BME280;29660;42.892;24.710;2022-10-20T14:31:46;97540.44;;;16.57;47.13
44001;BME280;29660;42.892;24.710;2022-10-20T14:36:49;97561.19;;;16.56;46.93
44001;BME280;29660;42.892;24.710;2022-10-20T14:41:57;97394.25;;;15.28;47.73
44001;BME280;29660;42.892;24.710;2022-10-20T14:47:01;97407.03;;;15.22;47.85
44001;BME280;29660;42.892;24.710;2022-10-20T15:02:28;97563.25;;;15.66;48.88
44001;BME280;29660;42.892;24.710;2022-10-20T15:07:33;97557.22;;;15.46;49.15
44001;BME280;29660;42.892;24.710;2022-10-20T15:17:41;97629.88;;;15.55;50.90
44001;BME280;29660;42.892;24.710;2022-10-20T15:22:43;97617.72;;;15.21;51.67
44001;BME280;29660;42.892;24.710;2022-10-20T15:27:45;97446.44;;;13.86;52.80
44001;BME280;29660;42.892;24.710;2022-10-20T15:32:48;97398.69;;;13.27;54.29
44001;BME280;29660;42.892;24.710;2022-10-20T15:37:51;97410.50;;;13.08;55.93
44001;BME280;29660;42.892;24.710;2022-10-20T15:42:54;97646.19;;;14.35;56.67
44001;BME280;29660;42.892;24.710;2022-10-20T15:47:56;97649.28;;;14.09;58.59
44001;BME280;29660;42.892;24.710;2022-10-20T15:52:58;97665.63;;;13.94;59.35
44001;BME280;29660;42.892;24.710;2022-10-20T15:58:00;97477.44;;;12.51;60.88
44001;BME280;29660;42.892;24.710;2022-10-20T16:03:04;97687.38;;;13.55;63.94
44001;BME280;29660;42.892;24.710;2022-10-20T16:08:06;97493.94;;;12.10;64.65
44001;BME280;29660;42.892;24.710;2022-10-20T16:13:09;97470.56;;;11.68;65.45
44001;BME280;29660;42.892;24.710;2022-10-20T16:18:11;97667.16;;;12.71;66.62
44001;BME280;29660;42.892;24.710;2022-10-20T16:23:14;97483.41;;;11.31;68.36
44001;BME280;29660;42.892;24.710;2022-10-20T16:28:16;97690.75;;;12.40;68.32
44001;BME280;29660;42.892;24.710;2022-10-20T16:33:18;97732.09;;;12.53;71.69
44001;BME280;29660;42.892;24.710;2022-10-20T16:38:20;97471.28;;;10.71;72.73
44001;BME280;29660;42.892;24.710;2022-10-20T16:43:22;97537.38;;;10.84;73.53
44001;BME280;29660;42.892;24.710;2022-10-20T16:48:24;97768.03;;;12.08;74.81
44001;BME280;29660;42.892;24.710;2022-10-20T16:53:26;97727.00;;;11.83;73.97
44001;BME280;29660;42.892;24.710;2022-10-20T16:58:28;97579.06;;;10.70;75.57
44001;BME280;29660;42.892;24.710;2022-10-20T17:03:31;97591.66;;;10.59;77.29
44001;BME280;29660;42.892;24.710;2022-10-20T17:08:34;97491.59;;;9.87;77.94
44001;BME280;29660;42.892;24.710;2022-10-20T17:13:38;97782.19;;;11.48;78.99
44001;BME280;29660;42.892;24.710;2022-10-20T17:18:40;97697.19;;;10.91;78.28
44001;BME280;29660;42.892;24.710;2022-10-20T17:23:43;97487.66;;;9.43;78.17
44001;BME280;29660;42.892;24.710;2022-10-20T17:28:46;97775.88;;;11.14;79.61
44001;BME280;29660;42.892;24.710;2022-10-20T17:33:48;97776.44;;;11.00;80.75
44001;BME280;29660;42.892;24.710;2022-10-20T17:39:03;97582.66;;;9.58;80.33
44001;BME280;29660;42.892;24.710;2022-10-20T17:44:08;97525.41;;;9.09;81.11
44001;BME280;29660;42.892;24.710;2022-10-20T17:49:10;97788.22;;;10.48;82.01
44001;BME280;29660;42.892;24.710;2022-10-20T17:54:12;97740.97;;;10.13;83.60
44001;BME280;29660;42.892;24.710;2022-10-20T17:59:14;97734.84;;;10.02;81.77
44001;BME280;29660;42.892;24.710;2022-10-20T18:04:16;97792.44;;;10.19;85.06
44001;BME280;29660;42.892;24.710;2022-10-20T18:09:19;97751.84;;;9.71;85.48
44001;BME280;29660;42.892;24.710;2022-10-20T18:14:21;97742.16;;;9.44;85.99
44001;BME280;29660;42.892;24.710;2022-10-20T18:19:23;97649.25;;;8.80;86.56
44001;BME280;29660;42.892;24.710;2022-10-20T18:24:25;97499.81;;;7.73;86.86
44001;BME280;29660;42.892;24.710;2022-10-20T18:29:27;97543.97;;;7.84;89.52
44001;BME280;29660;42.892;24.710;2022-10-20T18:34:29;97804.38;;;9.33;86.86
44001;BME280;29660;42.892;24.710;2022-10-20T18:39:31;97801.63;;;9.13;89.04
44001;BME280;29660;42.892;24.710;2022-10-20T18:44:33;97330.88;;;5.85;90.22
44001;BME280;29660;42.892;24.710;2022-10-20T18:49:35;97823.78;;;8.86;90.95
44001;BME280;29660;42.892;24.710;2022-10-20T18:54:37;97521.38;;;6.85;90.46
44001;BME280;29660;42.892;24.710;2022-10-20T18:59:40;97587.91;;;7.10;91.82
44001;BME280;29660;42.892;24.710;2022-10-20T19:04:42;97831.22;;;8.52;91.96
44001;BME280;29660;42.892;24.710;2022-10-20T19:09:44;97598.75;;;6.82;93.41
44001;BME280;29660;42.892;24.710;2022-10-20T19:14:46;97855.09;;;8.25;93.71
44001;BME280;29660;42.892;24.710;2022-10-20T19:19:48;97630.44;;;6.72;94.33
44001;BME280;29660;42.892;24.710;2022-10-20T19:24:50;97861.41;;;8.14;93.01
44001;BME280;29660;42.892;24.710;2022-10-20T19:29:52;97793.13;;;7.65;94.33
44001;BME280;29660;42.892;24.710;2022-10-20T19:34:55;97625.28;;;6.43;94.21
44001;BME280;29660;42.892;24.710;2022-10-20T19:39:57;97552.41;;;5.85;95.19
44001;BME280;29660;42.892;24.710;2022-10-20T19:44:59;97747.00;;;7.05;94.52
44001;BME280;29660;42.892;24.710;2022-10-20T19:50:01;97578.66;;;5.86;94.48
44001;BME280;29660;42.892;24.710;2022-10-20T19:55:04;97645.56;;;6.15;95.05
44001;BME280;29660;42.892;24.710;2022-10-20T20:00:06;97882.44;;;7.54;95.20
44001;BME280;29660;42.892;24.710;2022-10-20T20:05:08;97613.03;;;5.70;95.11
44001;BME280;29660;42.892;24.710;2022-10-20T20:10:10;97806.59;;;6.81;96.23
44001;BME280;29660;42.892;24.710;2022-10-20T20:15:12;97893.91;;;7.21;96.94
44001;BME280;29660;42.892;24.710;2022-10-20T20:20:14;97616.06;;;5.45;96.64
44001;BME280;29660;42.892;24.710;2022-10-20T20:25:16;97836.72;;;6.75;96.85
44001;BME280;29660;42.892;24.710;2022-10-20T20:30:18;97678.44;;;5.57;97.30
44001;BME280;29660;42.892;24.710;2022-10-20T20:35:20;97630.78;;;5.24;97.60
44001;BME280;29660;42.892;24.710;2022-10-20T20:40:22;97893.75;;;6.77;99.33
44001;BME280;29660;42.892;24.710;2022-10-20T20:45:24;97850.03;;;6.46;99.59
44001;BME280;29660;42.892;24.710;2022-10-20T20:50:26;97901.31;;;6.69;99.76
44001;BME280;29660;42.892;24.710;2022-10-20T20:55:28;97916.41;;;6.68;100.00
44001;BME280;29660;42.892;24.710;2022-10-20T21:00:30;97711.66;;;5.36;100.00
44001;BME280;29660;42.892;24.710;2022-10-20T21:05:35;97632.66;;;4.71;100.00
44001;BME280;29660;42.892;24.710;2022-10-20T21:10:37;97868.41;;;6.07;100.00
44001;BME280;29660;42.892;24.710;2022-10-20T21:15:39;97866.59;;;5.96;100.00
44001;BME280;29660;42.892;24.710;2022-10-20T21:20:41;97639.72;;;4.42;100.00
44001;BME280;29660;42.892;24.710;2022-10-20T21:25:44;97668.06;;;4.58;100.00
44001;BME280;29660;42.892;24.710;2022-10-20T21:30:47;97891.97;;;6.09;100.00
44001;BME280;29660;42.892;24.710;2022-10-20T21:35:49;97634.44;;;4.30;100.00
44001;BME280;29660;42.892;24.710;2022-10-20T21:40:51;97937.94;;;6.14;100.00
44001;BME280;29660;42.892;24.710;2022-10-20T21:45:53;97639.72;;;4.18;100.00
44001;BME280;29660;42.892;24.710;2022-10-20T21:50:55;97642.59;;;4.17;100.00
44001;BME280;29660;42.892;24.710;2022-10-20T21:55:57;97614.91;;;3.96;100.00
44001;BME280;29660;42.892;24.710;2022-10-20T22:00:59;97644.41;;;4.05;100.00
44001;BME280;29660;42.892;24.710;2022-10-20T22:06:02;97913.13;;;5.69;100.00
44001;BME280;29660;42.892;24.710;2022-10-20T22:11:05;97708.25;;;4.37;100.00
44001;BME280;29660;42.892;24.710;2022-10-20T22:16:10;97931.44;;;5.70;100.00
44001;BME280;29660;42.892;24.710;2022-10-20T22:21:15;97931.31;;;5.65;100.00
44001;BME280;29660;42.892;24.710;2022-10-20T22:26:18;97882.69;;;5.31;100.00
44001;BME280;29660;42.892;24.710;2022-10-20T22:31:21;97661.16;;;3.87;100.00
44001;BME280;29660;42.892;24.710;2022-10-20T22:36:24;97914.44;;;5.43;100.00
44001;BME280;29660;42.892;24.710;2022-10-20T22:41:26;97622.91;;;3.54;100.00
44001;BME280;29660;42.892;24.710;2022-10-20T22:46:29;97742.44;;;4.20;100.00
44001;BME280;29660;42.892;24.710;2022-10-20T22:51:30;97599.31;;;3.29;100.00
44001;BME280;29660;42.892;24.710;2022-10-20T22:56:32;97933.16;;;5.41;100.00
44001;BME280;29660;42.892;24.710;2022-10-20T23:01:34;97947.41;;;5.28;100.00
44001;BME280;29660;42.892;24.710;2022-10-20T23:06:37;97860.94;;;4.82;100.00
44001;BME280;29660;42.892;24.710;2022-10-20T23:11:39;97929.81;;;5.22;100.00
44001;BME280;29660;42.892;24.710;2022-10-20T23:16:41;97935.59;;;5.19;100.00
44001;BME280;29660;42.892;24.710;2022-10-20T23:21:43;97665.06;;;3.42;100.00
44001;BME280;29660;42.892;24.710;2022-10-20T23:26:45;97964.66;;;5.19;100.00
44001;BME280;29660;42.892;24.710;2022-10-20T23:31:47;97911.50;;;4.85;100.00
44001;BME280;29660;42.892;24.710;2022-10-20T23:36:49;97891.47;;;4.66;100.00
44001;BME280;29660;42.892;24.710;2022-10-20T23:41:51;97898.81;;;4.64;100.00
44001;BME280;29660;42.892;24.710;2022-10-20T23:46:53;97708.91;;;3.37;100.00
44001;BME280;29660;42.892;24.710;2022-10-20T23:51:55;97688.94;;;3.29;100.00
44001;BME280;29660;42.892;24.710;2022-10-20T23:56:57;97968.88;;;4.97;100.00
